Schenectady, NY

9:49 AM EDT on September 01, 2014 (GMT -0400)
Daily Gazette | Change Station
CLOSE
Current Station
Personal Weather Station
Location: Schenectady, NY
Elevation: 295 ft
Nearby Weather Stations

Elev 295 ft 42.83 °N, 73.92 °W | Updated 12 seconds ago

Clear
Clear
83.7 °F
Feels Like 88 °F
N
0.0
Wind Variable Wind from WSW
Gusts 0.0 mph

Today
High -- | Low -- °F
--% Chance of Precip.
Yesterday
High -- | Low -- °F
Precip. -- in
6:20 AM 7:30 PM
Waxing Crescent, 41% visible
Pressure 30.01 in
Visibility 7.0 miles
Clouds Clear
Heat Index 88 °F
Dew Point 71 °F
Humidity 65%
Rainfall 0.00 in
Snow Depth Not available.
UV 2 out of 12
Pollen 6.90 out of 12
PM2.5 Good
Flu Activity Not available.
METAR KSCH 011245Z 22004KT 7SM CLR 21/20 A3001

More Conditions Fewer Conditions

Pressure 30.01 in
Visibility 7.0 miles
Clouds Clear
Heat Index 88 °F
Dew Point 71 °F
Humidity 65%
Rainfall 0.00 in
Snow Depth Not available.
UV 2 out of 12
Pollen 6.90 out of 12
PM2.5 Good
Flu Activity Not available.
METAR KSCH 011245Z 22004KT 7SM CLR 21/20 A3001

More Conditions Fewer Conditions

10-Day Weather Forecast

Almanac

Astronomy

Sep. 01, 2014 Rise Set
Actual Time 6:20 AM EDT 7:30 PM EDT
Civil Twilight 5:51 AM EDT 7:59 PM EDT
Nautical Twilight 5:16 AM EDT 8:34 PM EDT
Astronomical Twilight 4:39 AM EDT 9:10 PM EDT
Moon 1:13 PM EDT 11:19 PM EDT
Length of Visible Light 14h 08m
Length of Day
13h 10m
Tomorrow will be 2m 48s shorter.
Waxing Crescent, 41% of the Moon is Illuminated
Today
Waxing Crescent
Sep 2
First Quarter
Sep 8
Full
Sep 15
Last Quarter
Sep 24
New

Today's Extremes

State Highs State Lows

Community

WunderPhotos

Upload Photos

1,749,222 photos uploaded!

Nearby

Air Quality

  Air Quality AQ Index Pollutant
Yesterday Good
PM2.5
Yesterday Good
OZONE
Current Good
PM2.5
Monday Moderate
OZONE
Monday Good
PM2.5
Tuesday Moderate
PM2.5
Tuesday Good
OZONE

Snow Depth

Station Depth Elevation
No new snow has been reported.

Earthquake Activity

City Distance Mag. Time & Date
No recent earthquake activity has been reported nearby.
Minimum magnitude displayed is 2.5.

Coastal Water Temperatures

Place Temperature
No Stations Reporting

Nearby Weather Stations